Main page
METAR-TAF:

METAR-TAF

Airports :

Aberdeen, Scotland

Aberdeen Airport

latitude: 57-12N, longitude: 002-13W, elevation: 65 m

Current weather observation

The report was made 38 minutes ago, at 14:20 UTC
Wind 9 kt from the West/Southwest, varying between Southwest and West
Temperature 3°C
Humidity 75%
Pressure 1002 hPa
Visibility 10 km or more

METAR: EGPD 241420Z AUTO 25009KT 220V280 9999 NCD 03/M01 Q1002 NOSIG

Time: 14:58 (14:58 UTC)

Forecast

The report was made 2 hours and 17 minutes ago, at 12:41 UTC
Forecast valid from 24 at 12 UTC to 25 at 12 UTC
Wind 8 kt from the West/Southwest
Visibility 10 km or more
Few clouds at a height of 4500 ft
Probability 40% :
Temporary
from 24 at 12 UTC to 25 at 12 UTC
Wind 15 kt from the West with gusts up to 25 kt

TAF: EGPD 241241Z 2412/2512 24008KT 9999 FEW045 PROB40 TEMPO 2412/2512 26015G25KT

Weather observations and forecasts of more than 4000 airports (METAR and TAF reports).

The available stations are represented by yellow and red dots on the map.

Hover mouse over dot to see the name of the station.

Then click to see weather observations and forecasts.

To change the map : click on the green buttons with a black cross to zoom in, on the green button with a dash to zoom out, or on the green arrows for adjacent maps.


METAR-TAF: